»·PEaware :: N217S KSNA-KSNA

N217S :: KSNA-KSNA

FLIGHT INFORMATION

Flight Status: Arrived
Operator: Privately registered:
United States
More flights under this callsign
Pilot: Svilen V. (9887)
Aircraft: CHRISTEN A-1 HUSKY
(HUSK)
More flights by this aircraft type
Origin: KSNA John Wayne-Orange Co
United States
Destination: KSNA John Wayne-Orange Co
United States
More flights between these airports :: More routes between these airports
Route: +
File this flight plan on PilotEdge
Remarks:
Altitude:
(Current/Filed)
0ft
Speed:
(Current/Filed)
0kts
Departed: 24-Jan-16 03:45 PM
Arrived: 24-Jan-16 04:22 PM
Distance/Time
Traveled:
0nm/0:37
Distance/Time
To Go:
Arrived

Flight Plot

Page will automatically refresh every two minutes.


Map Options




Map Legend


Flown Route
Filed Route
Departure Airport
Arrival Airport
Navaid (VOR, NDB)
Fix

Horizontal Profiles

Position Reports

Time Latitude Longitude Heading Altitude Ground
Speed
24-Jan-16 15:39 34.052478 -117.252176 244 6496ft 102kts
24-Jan-16 15:40 34.041731 -117.272310 243 6519ft 102kts
24-Jan-16 15:41 34.031937 -117.292561 246 6537ft 101kts
24-Jan-16 15:42 34.022689 -117.312610 245 6555ft 102kts
24-Jan-16 15:43 34.012315 -117.331769 240 6576ft 102kts
24-Jan-16 15:44 34.000956 -117.350833 238 6558ft 104kts
24-Jan-16 15:45 33.988351 -117.370541 240 6542ft 104kts
24-Jan-16 15:46 33.975333 -117.391104 234 6522ft 103kts
24-Jan-16 15:47 33.961348 -117.410589 234 6472ft 104kts
24-Jan-16 15:48 33.947768 -117.429885 235 6460ft 103kts
24-Jan-16 15:49 33.934667 -117.447716 236 6466ft 103kts
24-Jan-16 15:50 33.923275 -117.466800 238 6463ft 103kts
24-Jan-16 15:51 33.910960 -117.485258 235 6435ft 104kts
24-Jan-16 15:52 33.898194 -117.503221 236 6437ft 102kts
24-Jan-16 15:53 33.887297 -117.519943 239 6458ft 101kts
24-Jan-16 15:54 33.875976 -117.539323 235 6475ft 102kts
24-Jan-16 15:55 33.861983 -117.558437 232 6476ft 103kts
24-Jan-16 15:56 33.847418 -117.576298 229 6486ft 103kts
24-Jan-16 15:57 33.837238 -117.595608 255 6489ft 98kts
24-Jan-16 15:58 33.830777 -117.615575 253 6490ft 98kts
24-Jan-16 15:59 33.823653 -117.635091 253 6435ft 100kts
24-Jan-16 16:00 33.816893 -117.654380 254 6115ft 103kts
24-Jan-16 16:01 33.810551 -117.673647 251 5648ft 103kts
24-Jan-16 16:02 33.801928 -117.691359 238 5284ft 98kts
24-Jan-16 16:03 33.789945 -117.710463 230 4817ft 98kts
24-Jan-16 16:04 33.776961 -117.726934 235 4191ft 92kts
24-Jan-16 16:05 33.766997 -117.743334 237 3590ft 87kts
24-Jan-16 16:06 33.758257 -117.758377 237 3082ft 81kts
24-Jan-16 16:07 33.750563 -117.772768 237 2582ft 79kts
24-Jan-16 16:08 33.742857 -117.786755 239 2082ft 79kts
24-Jan-16 16:09 33.736055 -117.801035 238 1638ft 80kts
24-Jan-16 16:10 33.728372 -117.814883 231 1326ft 80kts
24-Jan-16 16:11 33.720101 -117.827364 227 1073ft 71kts
24-Jan-16 16:12 33.712772 -117.836251 216 866ft 52kts
24-Jan-16 16:13 33.706061 -117.842632 215 726ft 51kts
24-Jan-16 16:14 33.699027 -117.849445 214 584ft 51kts
24-Jan-16 16:15 33.690999 -117.856870 211 324ft 51kts
24-Jan-16 16:16 33.682448 -117.862684 206 103ft 48kts
24-Jan-16 16:17 33.676664 -117.866340 207 60ft 28kts
24-Jan-16 16:18 33.673825 -117.867523 147 60ft 0kts
24-Jan-16 16:19 33.673364 -117.867101 193 60ft 7kts
24-Jan-16 16:20 33.671755 -117.867938 173 60ft 11kts
24-Jan-16 16:21 33.671168 -117.867637 199 60ft 0kts
24-Jan-16 16:22 33.671168 -117.867637 199 60ft 0kts
24-Jan-16 16:23 33.671167 -117.867638 199 60ft 0kts
24-Jan-16 16:24 33.671167 -117.867638 199 60ft 0kts
24-Jan-16 16:25 33.671167 -117.867638 199 60ft 0kts
24-Jan-16 16:26 33.671167 -117.867638 199 60ft 0kts
24-Jan-16 16:27 33.671167 -117.867638 199 60ft 0kts
24-Jan-16 16:28 33.671167 -117.867638 199 60ft 0kts
24-Jan-16 16:29 33.671167 -117.867638 199 60ft 0kts
24-Jan-16 16:30 33.671167 -117.867638 199 60ft 0kts
24-Jan-16 16:31 33.671167 -117.867638 199 60ft 0kts

Navigation Log

Ident Type
Flight plan parsing failed, navigation log unavailable